sensor_id;sensor_type;location;lat;lon;timestamp;P1;durP1;ratioP1;P2;durP2;ratioP2
72201;SDS011;60105;54.956;73.412;2022-09-21T00:01:46;45.95;;;20.75;;
72201;SDS011;60105;54.956;73.412;2022-09-21T00:04:23;46.83;;;21.90;;
72201;SDS011;60105;54.956;73.412;2022-09-21T00:06:49;44.33;;;21.67;;
72201;SDS011;60105;54.956;73.412;2022-09-21T00:09:15;42.72;;;20.23;;
72201;SDS011;60105;54.956;73.412;2022-09-21T00:11:41;42.15;;;20.20;;
72201;SDS011;60105;54.956;73.412;2022-09-21T00:14:09;36.80;;;18.63;;
72201;SDS011;60105;54.956;73.412;2022-09-21T00:16:38;40.03;;;18.60;;
72201;SDS011;60105;54.956;73.412;2022-09-21T00:19:06;36.77;;;19.07;;
72201;SDS011;60105;54.956;73.412;2022-09-21T00:21:32;40.90;;;19.98;;
72201;SDS011;60105;54.956;73.412;2022-09-21T00:23:59;50.90;;;20.45;;
72201;SDS011;60105;54.956;73.412;2022-09-21T00:26:27;52.50;;;22.17;;
72201;SDS011;60105;54.956;73.412;2022-09-21T00:28:54;43.28;;;22.85;;
72201;SDS011;60105;54.956;73.412;2022-09-21T00:31:23;44.47;;;22.17;;
72201;SDS011;60105;54.956;73.412;2022-09-21T00:33:49;43.50;;;22.63;;
72201;SDS011;60105;54.956;73.412;2022-09-21T00:36:17;50.22;;;23.70;;
72201;SDS011;60105;54.956;73.412;2022-09-21T00:38:51;45.75;;;21.13;;
72201;SDS011;60105;54.956;73.412;2022-09-21T00:41:18;41.15;;;20.90;;
72201;SDS011;60105;54.956;73.412;2022-09-21T00:43:46;46.60;;;22.10;;
72201;SDS011;60105;54.956;73.412;2022-09-21T00:46:27;48.25;;;20.65;;
72201;SDS011;60105;54.956;73.412;2022-09-21T00:49:05;42.58;;;20.65;;
72201;SDS011;60105;54.956;73.412;2022-09-21T00:51:36;46.70;;;20.67;;
72201;SDS011;60105;54.956;73.412;2022-09-21T00:54:08;53.88;;;21.83;;
72201;SDS011;60105;54.956;73.412;2022-09-21T00:56:39;43.47;;;21.87;;
72201;SDS011;60105;54.956;73.412;2022-09-21T00:59:07;46.58;;;22.65;;
72201;SDS011;60105;54.956;73.412;2022-09-21T01:01:34;45.33;;;23.15;;
72201;SDS011;60105;54.956;73.412;2022-09-21T01:04:02;41.35;;;22.67;;
72201;SDS011;60105;54.956;73.412;2022-09-21T01:06:31;45.58;;;22.58;;
72201;SDS011;60105;54.956;73.412;2022-09-21T01:08:59;51.93;;;23.10;;
72201;SDS011;60105;54.956;73.412;2022-09-21T01:30:52;59.40;;;25.77;;
72201;SDS011;60105;54.956;73.412;2022-09-21T01:33:31;49.90;;;27.00;;
72201;SDS011;60105;54.956;73.412;2022-09-21T01:36:13;73.73;;;29.73;;
72201;SDS011;60105;54.956;73.412;2022-09-21T01:38:57;60.85;;;28.48;;
72201;SDS011;60105;54.956;73.412;2022-09-21T01:41:26;53.72;;;27.80;;
72201;SDS011;60105;54.956;73.412;2022-09-21T01:44:11;60.55;;;30.27;;
72201;SDS011;60105;54.956;73.412;2022-09-21T01:46:51;61.58;;;27.73;;
72201;SDS011;60105;54.956;73.412;2022-09-21T01:49:30;58.47;;;28.07;;
72201;SDS011;60105;54.956;73.412;2022-09-21T01:52:03;67.22;;;26.38;;
72201;SDS011;60105;54.956;73.412;2022-09-21T01:54:46;59.13;;;28.95;;
72201;SDS011;60105;54.956;73.412;2022-09-21T01:57:35;61.75;;;27.60;;
72201;SDS011;60105;54.956;73.412;2022-09-21T02:00:04;66.53;;;29.30;;
72201;SDS011;60105;54.956;73.412;2022-09-21T02:02:40;72.03;;;30.00;;
72201;SDS011;60105;54.956;73.412;2022-09-21T02:05:11;75.50;;;32.30;;
72201;SDS011;60105;54.956;73.412;2022-09-21T02:07:38;76.28;;;31.38;;
72201;SDS011;60105;54.956;73.412;2022-09-21T02:10:06;66.00;;;31.63;;
72201;SDS011;60105;54.956;73.412;2022-09-21T02:12:46;70.40;;;32.53;;
72201;SDS011;60105;54.956;73.412;2022-09-21T02:15:13;64.13;;;30.63;;
72201;SDS011;60105;54.956;73.412;2022-09-21T02:20:37;74.93;;;30.63;;
72201;SDS011;60105;54.956;73.412;2022-09-21T02:26:25;72.32;;;31.45;;
72201;SDS011;60105;54.956;73.412;2022-09-21T02:29:09;62.93;;;28.33;;
72201;SDS011;60105;54.956;73.412;2022-09-21T02:34:43;60.38;;;27.48;;
72201;SDS011;60105;54.956;73.412;2022-09-21T02:40:38;65.38;;;27.42;;
72201;SDS011;60105;54.956;73.412;2022-09-21T02:43:24;55.07;;;25.73;;
72201;SDS011;60105;54.956;73.412;2022-09-21T02:45:59;60.72;;;26.35;;
72201;SDS011;60105;54.956;73.412;2022-09-21T02:48:34;57.97;;;28.23;;
72201;SDS011;60105;54.956;73.412;2022-09-21T02:51:13;59.72;;;28.55;;
72201;SDS011;60105;54.956;73.412;2022-09-21T02:53:55;51.85;;;21.65;;
72201;SDS011;60105;54.956;73.412;2022-09-21T02:56:24;51.83;;;23.40;;
72201;SDS011;60105;54.956;73.412;2022-09-21T02:58:53;41.65;;;22.25;;
72201;SDS011;60105;54.956;73.412;2022-09-21T03:01:21;55.38;;;22.45;;
72201;SDS011;60105;54.956;73.412;2022-09-21T03:03:52;51.00;;;21.25;;
72201;SDS011;60105;54.956;73.412;2022-09-21T03:06:18;48.53;;;20.70;;
72201;SDS011;60105;54.956;73.412;2022-09-21T03:08:50;58.63;;;22.10;;
72201;SDS011;60105;54.956;73.412;2022-09-21T03:11:17;49.60;;;20.38;;
72201;SDS011;60105;54.956;73.412;2022-09-21T03:13:44;51.00;;;20.25;;
72201;SDS011;60105;54.956;73.412;2022-09-21T03:16:10;49.67;;;20.20;;
72201;SDS011;60105;54.956;73.412;2022-09-21T03:18:37;48.08;;;21.90;;
72201;SDS011;60105;54.956;73.412;2022-09-21T03:21:05;65.50;;;24.53;;
72201;SDS011;60105;54.956;73.412;2022-09-21T03:23:36;54.00;;;24.05;;
72201;SDS011;60105;54.956;73.412;2022-09-21T03:26:03;58.92;;;24.33;;
72201;SDS011;60105;54.956;73.412;2022-09-21T03:28:40;50.85;;;21.77;;
72201;SDS011;60105;54.956;73.412;2022-09-21T03:31:08;44.97;;;19.38;;
72201;SDS011;60105;54.956;73.412;2022-09-21T03:33:35;42.13;;;18.67;;
72201;SDS011;60105;54.956;73.412;2022-09-21T03:36:01;45.55;;;16.92;;
72201;SDS011;60105;54.956;73.412;2022-09-21T03:38:28;39.72;;;16.27;;
72201;SDS011;60105;54.956;73.412;2022-09-21T03:40:54;41.28;;;16.70;;
72201;SDS011;60105;54.956;73.412;2022-09-21T03:43:22;35.88;;;16.42;;
72201;SDS011;60105;54.956;73.412;2022-09-21T03:45:49;35.83;;;14.37;;
72201;SDS011;60105;54.956;73.412;2022-09-21T03:48:15;42.40;;;15.32;;
72201;SDS011;60105;54.956;73.412;2022-09-21T03:50:42;45.92;;;15.38;;
72201;SDS011;60105;54.956;73.412;2022-09-21T03:53:18;35.80;;;14.27;;
72201;SDS011;60105;54.956;73.412;2022-09-21T03:55:45;39.30;;;15.20;;
72201;SDS011;60105;54.956;73.412;2022-09-21T03:58:11;32.30;;;14.77;;
72201;SDS011;60105;54.956;73.412;2022-09-21T04:00:42;44.28;;;16.35;;
72201;SDS011;60105;54.956;73.412;2022-09-21T04:03:09;39.05;;;16.25;;
72201;SDS011;60105;54.956;73.412;2022-09-21T04:05:35;45.35;;;16.38;;
72201;SDS011;60105;54.956;73.412;2022-09-21T04:08:03;43.00;;;17.10;;
72201;SDS011;60105;54.956;73.412;2022-09-21T04:10:30;37.63;;;16.90;;
72201;SDS011;60105;54.956;73.412;2022-09-21T04:12:59;48.75;;;17.25;;
72201;SDS011;60105;54.956;73.412;2022-09-21T04:15:26;40.40;;;17.08;;
72201;SDS011;60105;54.956;73.412;2022-09-21T04:17:53;39.78;;;16.05;;
72201;SDS011;60105;54.956;73.412;2022-09-21T04:20:25;38.75;;;17.33;;
72201;SDS011;60105;54.956;73.412;2022-09-21T04:22:51;42.70;;;16.53;;
72201;SDS011;60105;54.956;73.412;2022-09-21T04:25:17;48.50;;;17.17;;
72201;SDS011;60105;54.956;73.412;2022-09-21T04:27:44;42.40;;;16.45;;
72201;SDS011;60105;54.956;73.412;2022-09-21T04:30:11;43.38;;;17.80;;
72201;SDS011;60105;54.956;73.412;2022-09-21T04:32:39;47.38;;;21.30;;
72201;SDS011;60105;54.956;73.412;2022-09-21T04:35:06;47.97;;;21.70;;
72201;SDS011;60105;54.956;73.412;2022-09-21T04:37:32;44.88;;;19.20;;
72201;SDS011;60105;54.956;73.412;2022-09-21T04:39:58;37.95;;;16.98;;
72201;SDS011;60105;54.956;73.412;2022-09-21T04:42:25;42.90;;;16.73;;
72201;SDS011;60105;54.956;73.412;2022-09-21T04:44:52;39.42;;;16.42;;
72201;SDS011;60105;54.956;73.412;2022-09-21T04:47:24;42.17;;;17.07;;
72201;SDS011;60105;54.956;73.412;2022-09-21T04:49:50;39.08;;;17.10;;
72201;SDS011;60105;54.956;73.412;2022-09-21T04:52:23;44.38;;;17.52;;
72201;SDS011;60105;54.956;73.412;2022-09-21T04:54:49;47.83;;;17.23;;
72201;SDS011;60105;54.956;73.412;2022-09-21T04:57:15;39.13;;;15.70;;
72201;SDS011;60105;54.956;73.412;2022-09-21T04:59:42;36.27;;;14.00;;
72201;SDS011;60105;54.956;73.412;2022-09-21T05:02:08;48.35;;;15.52;;
72201;SDS011;60105;54.956;73.412;2022-09-21T05:04:34;34.30;;;14.65;;
72201;SDS011;60105;54.956;73.412;2022-09-21T05:07:01;35.75;;;14.65;;
72201;SDS011;60105;54.956;73.412;2022-09-21T05:09:28;34.05;;;12.88;;
72201;SDS011;60105;54.956;73.412;2022-09-21T05:12:18;38.33;;;13.23;;
72201;SDS011;60105;54.956;73.412;2022-09-21T05:14:45;41.97;;;12.57;;
72201;SDS011;60105;54.956;73.412;2022-09-21T05:17:11;39.58;;;12.73;;
72201;SDS011;60105;54.956;73.412;2022-09-21T05:19:38;37.20;;;11.65;;
72201;SDS011;60105;54.956;73.412;2022-09-21T05:22:05;31.38;;;11.52;;
72201;SDS011;60105;54.956;73.412;2022-09-21T05:24:36;39.37;;;11.77;;
72201;SDS011;60105;54.956;73.412;2022-09-21T05:27:02;31.23;;;10.85;;
72201;SDS011;60105;54.956;73.412;2022-09-21T05:29:29;28.48;;;10.38;;
72201;SDS011;60105;54.956;73.412;2022-09-21T05:32:36;24.70;;;10.55;;
72201;SDS011;60105;54.956;73.412;2022-09-21T05:35:20;25.42;;;9.63;;
72201;SDS011;60105;54.956;73.412;2022-09-21T05:37:56;31.93;;;9.30;;
72201;SDS011;60105;54.956;73.412;2022-09-21T05:40:26;26.95;;;9.52;;
72201;SDS011;60105;54.956;73.412;2022-09-21T05:42:52;28.17;;;9.27;;
72201;SDS011;60105;54.956;73.412;2022-09-21T05:45:19;21.88;;;8.40;;
72201;SDS011;60105;54.956;73.412;2022-09-21T05:47:49;22.88;;;7.43;;
72201;SDS011;60105;54.956;73.412;2022-09-21T06:01:10;22.40;;;7.00;;
72201;SDS011;60105;54.956;73.412;2022-09-21T06:03:55;18.07;;;6.57;;
72201;SDS011;60105;54.956;73.412;2022-09-21T06:06:24;18.23;;;6.22;;
72201;SDS011;60105;54.956;73.412;2022-09-21T06:09:00;17.55;;;4.97;;
72201;SDS011;60105;54.956;73.412;2022-09-21T06:11:26;19.13;;;5.10;;
72201;SDS011;60105;54.956;73.412;2022-09-21T06:13:52;10.93;;;4.90;;
72201;SDS011;60105;54.956;73.412;2022-09-21T06:16:19;19.77;;;4.80;;
72201;SDS011;60105;54.956;73.412;2022-09-21T06:18:45;17.00;;;5.50;;
72201;SDS011;60105;54.956;73.412;2022-09-21T06:21:11;14.00;;;5.18;;
72201;SDS011;60105;54.956;73.412;2022-09-21T06:23:38;13.32;;;5.65;;
72201;SDS011;60105;54.956;73.412;2022-09-21T06:26:04;16.17;;;5.43;;
72201;SDS011;60105;54.956;73.412;2022-09-21T06:28:30;16.03;;;6.23;;
72201;SDS011;60105;54.956;73.412;2022-09-21T06:30:57;13.25;;;5.28;;
72201;SDS011;60105;54.956;73.412;2022-09-21T06:33:24;15.65;;;5.32;;
72201;SDS011;60105;54.956;73.412;2022-09-21T06:36:00;16.15;;;5.93;;
72201;SDS011;60105;54.956;73.412;2022-09-21T06:38:27;19.13;;;6.10;;
72201;SDS011;60105;54.956;73.412;2022-09-21T06:40:54;14.60;;;5.17;;
72201;SDS011;60105;54.956;73.412;2022-09-21T06:43:20;19.25;;;6.50;;
72201;SDS011;60105;54.956;73.412;2022-09-21T06:45:57;16.50;;;5.93;;
72201;SDS011;60105;54.956;73.412;2022-09-21T06:48:25;16.25;;;5.57;;
72201;SDS011;60105;54.956;73.412;2022-09-21T06:50:59;15.18;;;5.53;;
72201;SDS011;60105;54.956;73.412;2022-09-21T06:53:27;11.70;;;5.27;;
72201;SDS011;60105;54.956;73.412;2022-09-21T06:56:02;18.15;;;4.72;;
72201;SDS011;60105;54.956;73.412;2022-09-21T06:58:30;9.00;;;4.05;;
72201;SDS011;60105;54.956;73.412;2022-09-21T07:01:09;9.23;;;3.85;;
72201;SDS011;60105;54.956;73.412;2022-09-21T07:03:37;8.50;;;3.17;;
72201;SDS011;60105;54.956;73.412;2022-09-21T07:06:10;10.70;;;3.17;;
72201;SDS011;60105;54.956;73.412;2022-09-21T07:08:38;8.00;;;3.00;;
72201;SDS011;60105;54.956;73.412;2022-09-21T07:11:10;12.98;;;3.00;;
72201;SDS011;60105;54.956;73.412;2022-09-21T07:13:36;7.32;;;2.97;;
72201;SDS011;60105;54.956;73.412;2022-09-21T07:16:04;10.43;;;2.95;;
72201;SDS011;60105;54.956;73.412;2022-09-21T07:18:35;10.87;;;2.50;;
72201;SDS011;60105;54.956;73.412;2022-09-21T07:21:08;10.73;;;3.30;;
72201;SDS011;60105;54.956;73.412;2022-09-21T07:23:39;11.45;;;2.97;;
72201;SDS011;60105;54.956;73.412;2022-09-21T07:26:06;6.40;;;2.92;;
72201;SDS011;60105;54.956;73.412;2022-09-21T07:28:37;9.73;;;3.40;;
72201;SDS011;60105;54.956;73.412;2022-09-21T07:31:05;8.00;;;2.80;;
72201;SDS011;60105;54.956;73.412;2022-09-21T07:33:38;10.30;;;3.08;;
72201;SDS011;60105;54.956;73.412;2022-09-21T07:36:12;12.43;;;3.53;;
72201;SDS011;60105;54.956;73.412;2022-09-21T07:38:40;19.85;;;4.40;;
72201;SDS011;60105;54.956;73.412;2022-09-21T07:41:16;16.63;;;4.05;;
72201;SDS011;60105;54.956;73.412;2022-09-21T07:43:42;12.80;;;3.80;;
72201;SDS011;60105;54.956;73.412;2022-09-21T07:46:13;10.43;;;4.10;;
72201;SDS011;60105;54.956;73.412;2022-09-21T07:48:40;13.18;;;3.22;;
72201;SDS011;60105;54.956;73.412;2022-09-21T07:51:08;9.25;;;3.22;;
72201;SDS011;60105;54.956;73.412;2022-09-21T07:53:36;9.02;;;3.70;;
72201;SDS011;60105;54.956;73.412;2022-09-21T07:56:04;11.83;;;3.20;;
72201;SDS011;60105;54.956;73.412;2022-09-21T07:58:49;9.55;;;3.78;;
72201;SDS011;60105;54.956;73.412;2022-09-21T08:01:37;8.32;;;3.08;;
72201;SDS011;60105;54.956;73.412;2022-09-21T08:04:09;11.43;;;3.30;;
72201;SDS011;60105;54.956;73.412;2022-09-21T08:06:38;11.07;;;3.20;;
72201;SDS011;60105;54.956;73.412;2022-09-21T08:09:06;6.20;;;3.00;;
72201;SDS011;60105;54.956;73.412;2022-09-21T08:11:33;6.60;;;3.00;;
72201;SDS011;60105;54.956;73.412;2022-09-21T08:14:00;10.57;;;2.72;;
72201;SDS011;60105;54.956;73.412;2022-09-21T08:16:28;14.63;;;3.05;;
72201;SDS011;60105;54.956;73.412;2022-09-21T08:19:04;9.98;;;2.78;;
72201;SDS011;60105;54.956;73.412;2022-09-21T08:21:41;9.57;;;2.77;;
72201;SDS011;60105;54.956;73.412;2022-09-21T08:24:08;8.02;;;2.60;;
72201;SDS011;60105;54.956;73.412;2022-09-21T08:26:35;11.82;;;2.80;;
72201;SDS011;60105;54.956;73.412;2022-09-21T08:29:01;8.40;;;2.53;;
72201;SDS011;60105;54.956;73.412;2022-09-21T08:31:28;13.57;;;2.95;;
72201;SDS011;60105;54.956;73.412;2022-09-21T08:33:55;7.03;;;2.70;;
72201;SDS011;60105;54.956;73.412;2022-09-21T08:36:22;11.07;;;2.58;;
72201;SDS011;60105;54.956;73.412;2022-09-21T08:38:49;8.65;;;3.13;;
72201;SDS011;60105;54.956;73.412;2022-09-21T08:41:22;11.20;;;3.13;;
72201;SDS011;60105;54.956;73.412;2022-09-21T08:44:23;15.07;;;2.38;;
72201;SDS011;60105;54.956;73.412;2022-09-21T08:47:03;7.30;;;2.47;;
72201;SDS011;60105;54.956;73.412;2022-09-21T08:49:37;9.38;;;2.72;;
72201;SDS011;60105;54.956;73.412;2022-09-21T08:52:11;6.40;;;2.53;;
72201;SDS011;60105;54.956;73.412;2022-09-21T08:57:37;8.82;;;2.85;;
72201;SDS011;60105;54.956;73.412;2022-09-21T09:00:06;9.87;;;3.10;;
72201;SDS011;60105;54.956;73.412;2022-09-21T09:13:40;7.97;;;2.53;;
72201;SDS011;60105;54.956;73.412;2022-09-21T09:19:17;11.40;;;2.90;;
72201;SDS011;60105;54.956;73.412;2022-09-21T09:21:48;13.10;;;3.00;;
72201;SDS011;60105;54.956;73.412;2022-09-21T09:24:18;9.25;;;2.20;;
72201;SDS011;60105;54.956;73.412;2022-09-21T09:27:12;10.10;;;2.60;;
72201;SDS011;60105;54.956;73.412;2022-09-21T09:30:00;6.45;;;2.78;;
72201;SDS011;60105;54.956;73.412;2022-09-21T09:33:01;13.00;;;2.97;;
72201;SDS011;60105;54.956;73.412;2022-09-21T09:35:53;13.10;;;2.88;;
72201;SDS011;60105;54.956;73.412;2022-09-21T09:38:37;12.35;;;2.55;;
72201;SDS011;60105;54.956;73.412;2022-09-21T09:41:11;11.17;;;2.40;;
72201;SDS011;60105;54.956;73.412;2022-09-21T09:49:27;8.90;;;2.42;;
72201;SDS011;60105;54.956;73.412;2022-09-21T09:52:01;11.98;;;2.90;;
72201;SDS011;60105;54.956;73.412;2022-09-21T09:54:28;9.03;;;2.60;;
72201;SDS011;60105;54.956;73.412;2022-09-21T09:57:00;13.23;;;2.45;;
72201;SDS011;60105;54.956;73.412;2022-09-21T09:59:31;11.43;;;3.47;;
72201;SDS011;60105;54.956;73.412;2022-09-21T10:02:01;10.95;;;3.47;;
72201;SDS011;60105;54.956;73.412;2022-09-21T10:04:33;13.07;;;2.58;;
72201;SDS011;60105;54.956;73.412;2022-09-21T10:07:00;9.17;;;2.40;;
72201;SDS011;60105;54.956;73.412;2022-09-21T10:09:32;8.30;;;2.53;;
72201;SDS011;60105;54.956;73.412;2022-09-21T10:12:03;11.27;;;2.70;;
72201;SDS011;60105;54.956;73.412;2022-09-21T10:14:50;9.43;;;2.55;;
72201;SDS011;60105;54.956;73.412;2022-09-21T10:17:18;8.45;;;2.42;;
72201;SDS011;60105;54.956;73.412;2022-09-21T10:20:01;9.90;;;2.47;;
72201;SDS011;60105;54.956;73.412;2022-09-21T10:22:30;10.35;;;2.92;;
72201;SDS011;60105;54.956;73.412;2022-09-21T10:24:56;10.02;;;2.60;;
72201;SDS011;60105;54.956;73.412;2022-09-21T10:27:33;10.20;;;2.40;;
72201;SDS011;60105;54.956;73.412;2022-09-21T10:30:00;10.45;;;2.92;;
72201;SDS011;60105;54.956;73.412;2022-09-21T10:32:36;7.80;;;2.17;;
72201;SDS011;60105;54.956;73.412;2022-09-21T10:37:33;10.73;;;2.50;;
72201;SDS011;60105;54.956;73.412;2022-09-21T10:42:45;12.43;;;2.78;;
72201;SDS011;60105;54.956;73.412;2022-09-21T10:45:15;7.80;;;2.70;;
72201;SDS011;60105;54.956;73.412;2022-09-21T10:47:50;12.77;;;2.60;;
72201;SDS011;60105;54.956;73.412;2022-09-21T10:52:53;10.40;;;2.47;;
72201;SDS011;60105;54.956;73.412;2022-09-21T10:55:25;14.45;;;3.40;;
72201;SDS011;60105;54.956;73.412;2022-09-21T10:57:52;10.27;;;2.70;;
72201;SDS011;60105;54.956;73.412;2022-09-21T11:02:57;12.80;;;2.50;;
72201;SDS011;60105;54.956;73.412;2022-09-21T11:05:26;11.90;;;2.20;;
72201;SDS011;60105;54.956;73.412;2022-09-21T11:10:47;9.60;;;2.13;;
72201;SDS011;60105;54.956;73.412;2022-09-21T11:13:27;9.25;;;2.92;;
72201;SDS011;60105;54.956;73.412;2022-09-21T11:16:13;11.80;;;3.03;;
72201;SDS011;60105;54.956;73.412;2022-09-21T11:21:28;18.20;;;2.85;;
72201;SDS011;60105;54.956;73.412;2022-09-21T11:26:54;10.60;;;3.00;;
72201;SDS011;60105;54.956;73.412;2022-09-21T11:30:02;11.48;;;2.58;;
72201;SDS011;60105;54.956;73.412;2022-09-21T11:55:19;12.90;;;2.78;;
72201;SDS011;60105;54.956;73.412;2022-09-21T12:00:55;10.80;;;2.47;;
72201;SDS011;60105;54.956;73.412;2022-09-21T12:11:54;17.67;;;3.22;;
72201;SDS011;60105;54.956;73.412;2022-09-21T12:18:03;8.63;;;3.33;;
72201;SDS011;60105;54.956;73.412;2022-09-21T12:23:13;9.50;;;3.13;;
72201;SDS011;60105;54.956;73.412;2022-09-21T12:25:49;10.88;;;2.70;;
72201;SDS011;60105;54.956;73.412;2022-09-21T12:31:07;12.45;;;3.65;;
72201;SDS011;60105;54.956;73.412;2022-09-21T12:33:51;10.37;;;3.13;;
72201;SDS011;60105;54.956;73.412;2022-09-21T12:36:31;13.05;;;3.28;;
72201;SDS011;60105;54.956;73.412;2022-09-21T12:45:31;16.00;;;3.17;;
72201;SDS011;60105;54.956;73.412;2022-09-21T12:50:53;16.77;;;4.30;;
72201;SDS011;60105;54.956;73.412;2022-09-21T12:53:26;11.60;;;3.42;;
72201;SDS011;60105;54.956;73.412;2022-09-21T13:01:40;21.13;;;4.07;;
72201;SDS011;60105;54.956;73.412;2022-09-21T13:04:18;15.73;;;4.20;;
72201;SDS011;60105;54.956;73.412;2022-09-21T13:07:07;13.80;;;4.65;;
72201;SDS011;60105;54.956;73.412;2022-09-21T13:09:45;18.13;;;5.00;;
72201;SDS011;60105;54.956;73.412;2022-09-21T13:12:23;22.40;;;5.28;;
72201;SDS011;60105;54.956;73.412;2022-09-21T13:14:56;19.17;;;5.50;;
72201;SDS011;60105;54.956;73.412;2022-09-21T13:17:28;24.95;;;4.75;;
72201;SDS011;60105;54.956;73.412;2022-09-21T13:20:04;15.45;;;5.38;;
72201;SDS011;60105;54.956;73.412;2022-09-21T13:22:40;22.42;;;8.55;;
72201;SDS011;60105;54.956;73.412;2022-09-21T13:30:37;23.80;;;7.72;;
72201;SDS011;60105;54.956;73.412;2022-09-21T13:36:08;34.50;;;12.45;;
72201;SDS011;60105;54.956;73.412;2022-09-21T13:41:48;29.90;;;8.97;;
72201;SDS011;60105;54.956;73.412;2022-09-21T13:44:36;30.73;;;10.23;;
72201;SDS011;60105;54.956;73.412;2022-09-21T13:47:05;39.63;;;10.68;;
72201;SDS011;60105;54.956;73.412;2022-09-21T13:49:38;33.65;;;10.15;;
72201;SDS011;60105;54.956;73.412;2022-09-21T13:52:19;32.80;;;11.30;;
72201;SDS011;60105;54.956;73.412;2022-09-21T13:55:00;45.37;;;16.83;;
72201;SDS011;60105;54.956;73.412;2022-09-21T13:57:44;48.15;;;17.75;;
72201;SDS011;60105;54.956;73.412;2022-09-21T14:02:39;61.25;;;27.27;;
72201;SDS011;60105;54.956;73.412;2022-09-21T14:08:20;61.03;;;22.67;;
72201;SDS011;60105;54.956;73.412;2022-09-21T14:13:39;62.50;;;23.80;;
72201;SDS011;60105;54.956;73.412;2022-09-21T14:24:33;66.75;;;22.67;;
72201;SDS011;60105;54.956;73.412;2022-09-21T14:27:05;63.03;;;23.70;;
72201;SDS011;60105;54.956;73.412;2022-09-21T14:32:22;61.80;;;24.60;;
72201;SDS011;60105;54.956;73.412;2022-09-21T14:34:51;62.23;;;26.20;;
72201;SDS011;60105;54.956;73.412;2022-09-21T14:37:31;59.30;;;25.00;;
72201;SDS011;60105;54.956;73.412;2022-09-21T14:40:34;57.85;;;24.23;;
72201;SDS011;60105;54.956;73.412;2022-09-21T14:43:18;55.15;;;23.20;;
72201;SDS011;60105;54.956;73.412;2022-09-21T14:49:02;48.90;;;21.57;;
72201;SDS011;60105;54.956;73.412;2022-09-21T14:59:44;51.80;;;21.05;;
72201;SDS011;60105;54.956;73.412;2022-09-21T15:02:34;51.97;;;20.17;;
72201;SDS011;60105;54.956;73.412;2022-09-21T15:05:18;50.55;;;20.35;;
72201;SDS011;60105;54.956;73.412;2022-09-21T15:11:36;53.85;;;19.98;;
72201;SDS011;60105;54.956;73.412;2022-09-21T15:14:18;43.85;;;20.23;;
72201;SDS011;60105;54.956;73.412;2022-09-21T15:16:47;48.87;;;20.40;;
72201;SDS011;60105;54.956;73.412;2022-09-21T15:19:26;45.58;;;20.00;;
72201;SDS011;60105;54.956;73.412;2022-09-21T15:22:19;51.85;;;21.52;;
72201;SDS011;60105;54.956;73.412;2022-09-21T15:24:50;53.28;;;20.23;;
72201;SDS011;60105;54.956;73.412;2022-09-21T15:27:22;47.85;;;20.30;;
72201;SDS011;60105;54.956;73.412;2022-09-21T15:29:52;47.00;;;20.77;;
72201;SDS011;60105;54.956;73.412;2022-09-21T15:32:23;47.10;;;20.63;;
72201;SDS011;60105;54.956;73.412;2022-09-21T15:37:41;45.10;;;18.95;;
72201;SDS011;60105;54.956;73.412;2022-09-21T15:48:24;47.13;;;17.63;;
72201;SDS011;60105;54.956;73.412;2022-09-21T15:51:06;40.28;;;18.40;;
72201;SDS011;60105;54.956;73.412;2022-09-21T15:53:53;52.13;;;18.77;;
72201;SDS011;60105;54.956;73.412;2022-09-21T15:56:24;43.47;;;16.70;;
72201;SDS011;60105;54.956;73.412;2022-09-21T15:58:58;51.28;;;18.88;;
72201;SDS011;60105;54.956;73.412;2022-09-21T16:01:44;43.53;;;19.58;;
72201;SDS011;60105;54.956;73.412;2022-09-21T16:04:15;43.35;;;18.20;;
72201;SDS011;60105;54.956;73.412;2022-09-21T16:06:44;42.58;;;18.70;;
72201;SDS011;60105;54.956;73.412;2022-09-21T16:14:52;46.78;;;18.17;;
72201;SDS011;60105;54.956;73.412;2022-09-21T16:17:25;39.45;;;18.15;;
72201;SDS011;60105;54.956;73.412;2022-09-21T16:24:50;47.92;;;16.70;;
72201;SDS011;60105;54.956;73.412;2022-09-21T16:27:30;39.45;;;16.08;;
72201;SDS011;60105;54.956;73.412;2022-09-21T16:30:01;41.60;;;17.25;;
72201;SDS011;60105;54.956;73.412;2022-09-21T16:32:31;42.83;;;16.23;;
72201;SDS011;60105;54.956;73.412;2022-09-21T16:37:57;40.40;;;15.65;;
72201;SDS011;60105;54.956;73.412;2022-09-21T16:40:24;36.42;;;12.90;;
72201;SDS011;60105;54.956;73.412;2022-09-21T16:42:51;33.60;;;13.75;;
72201;SDS011;60105;54.956;73.412;2022-09-21T16:45:28;38.75;;;13.23;;
72201;SDS011;60105;54.956;73.412;2022-09-21T16:47:59;37.10;;;11.87;;
72201;SDS011;60105;54.956;73.412;2022-09-21T16:50:32;42.30;;;12.63;;
72201;SDS011;60105;54.956;73.412;2022-09-21T16:52:58;35.78;;;12.30;;
72201;SDS011;60105;54.956;73.412;2022-09-21T16:55:24;34.25;;;11.63;;
72201;SDS011;60105;54.956;73.412;2022-09-21T16:57:51;38.10;;;12.05;;
72201;SDS011;60105;54.956;73.412;2022-09-21T17:00:17;32.30;;;11.73;;
72201;SDS011;60105;54.956;73.412;2022-09-21T17:02:47;27.70;;;11.80;;
72201;SDS011;60105;54.956;73.412;2022-09-21T17:05:14;27.02;;;10.48;;
72201;SDS011;60105;54.956;73.412;2022-09-21T17:10:29;24.65;;;8.88;;
72201;SDS011;60105;54.956;73.412;2022-09-21T17:12:59;24.57;;;10.63;;
72201;SDS011;60105;54.956;73.412;2022-09-21T17:15:25;26.17;;;10.25;;
72201;SDS011;60105;54.956;73.412;2022-09-21T17:17:53;21.13;;;9.98;;
72201;SDS011;60105;54.956;73.412;2022-09-21T17:20:25;27.23;;;9.93;;
72201;SDS011;60105;54.956;73.412;2022-09-21T17:23:06;28.50;;;9.75;;
72201;SDS011;60105;54.956;73.412;2022-09-21T17:25:43;24.70;;;10.13;;
72201;SDS011;60105;54.956;73.412;2022-09-21T17:28:14;21.30;;;10.05;;
72201;SDS011;60105;54.956;73.412;2022-09-21T17:30:52;20.20;;;8.57;;
72201;SDS011;60105;54.956;73.412;2022-09-21T17:33:24;28.60;;;10.27;;
72201;SDS011;60105;54.956;73.412;2022-09-21T17:35:50;29.27;;;9.52;;
72201;SDS011;60105;54.956;73.412;2022-09-21T17:38:17;25.27;;;9.53;;
72201;SDS011;60105;54.956;73.412;2022-09-21T17:40:44;25.05;;;8.60;;
72201;SDS011;60105;54.956;73.412;2022-09-21T17:48:35;29.38;;;9.65;;
72201;SDS011;60105;54.956;73.412;2022-09-21T17:51:04;27.23;;;10.40;;
72201;SDS011;60105;54.956;73.412;2022-09-21T17:53:30;26.75;;;9.23;;
72201;SDS011;60105;54.956;73.412;2022-09-21T18:03:58;23.70;;;10.20;;
72201;SDS011;60105;54.956;73.412;2022-09-21T18:06:25;19.52;;;9.40;;
72201;SDS011;60105;54.956;73.412;2022-09-21T18:08:51;36.42;;;10.85;;
72201;SDS011;60105;54.956;73.412;2022-09-21T18:11:35;27.15;;;10.18;;
72201;SDS011;60105;54.956;73.412;2022-09-21T18:18:17;22.07;;;10.50;;
72201;SDS011;60105;54.956;73.412;2022-09-21T18:21:09;38.75;;;9.48;;
72201;SDS011;60105;54.956;73.412;2022-09-21T18:23:55;36.47;;;10.88;;
72201;SDS011;60105;54.956;73.412;2022-09-21T18:26:39;34.58;;;9.88;;
72201;SDS011;60105;54.956;73.412;2022-09-21T18:29:14;38.05;;;11.30;;
72201;SDS011;60105;54.956;73.412;2022-09-21T18:46:20;24.97;;;9.77;;
72201;SDS011;60105;54.956;73.412;2022-09-21T18:52:17;25.13;;;10.63;;
72201;SDS011;60105;54.956;73.412;2022-09-21T18:54:53;21.67;;;9.63;;
72201;SDS011;60105;54.956;73.412;2022-09-21T18:57:26;27.33;;;9.82;;